createdAt,value
2023-01-17T00:00:08.136Z,41.70
2023-01-17T00:03:01.517Z,41.70
2023-01-17T00:06:11.805Z,41.80
2023-01-17T00:09:25.460Z,41.70
2023-01-17T00:12:20.233Z,41.60
2023-01-17T00:15:14.105Z,41.50
2023-01-17T00:18:07.598Z,41.40
2023-01-17T00:21:17.894Z,41.30
2023-01-17T00:24:28.857Z,41.30
2023-01-17T00:27:22.476Z,41.40
2023-01-17T00:30:14.630Z,41.30
2023-01-17T00:33:06.322Z,41.40
2023-01-17T00:36:00.071Z,41.40
2023-01-17T00:38:52.305Z,41.30
2023-01-17T00:41:44.043Z,41.20
2023-01-17T00:44:56.233Z,41.20
2023-01-17T00:48:06.440Z,41.10
2023-01-17T00:51:16.695Z,41.20
2023-01-17T00:54:27.107Z,41.30
2023-01-17T00:57:37.493Z,41.30
2023-01-17T01:00:48.995Z,41.10
2023-01-17T01:03:59.850Z,41.00
2023-01-17T01:07:10.464Z,40.70
2023-01-17T01:10:20.816Z,40.80
2023-01-17T01:13:32.095Z,40.60
2023-01-17T01:16:43.877Z,40.60
2023-01-17T01:19:54.637Z,40.50
2023-01-17T01:23:04.608Z,40.60
2023-01-17T01:26:14.660Z,40.50
2023-01-17T01:29:24.765Z,40.40
2023-01-17T01:32:37.792Z,40.40
2023-01-17T01:35:31.283Z,40.50
2023-01-17T01:38:25.886Z,40.40
2023-01-17T01:41:19.653Z,40.20
2023-01-17T01:44:44.305Z,40.10
2023-01-17T01:47:40.695Z,40.10
2023-01-17T01:50:36.209Z,40.20
2023-01-17T01:53:29.872Z,40.00
2023-01-17T01:56:24.813Z,39.70
2023-01-17T01:59:21.104Z,39.70
2023-01-17T02:02:14.957Z,39.60
2023-01-17T02:05:11.985Z,39.60
2023-01-17T02:08:08.100Z,39.40
2023-01-17T02:11:01.986Z,39.30
2023-01-17T02:13:55.353Z,39.20
2023-01-17T02:17:01.875Z,39.10
2023-01-17T02:20:44.429Z,39.10
2023-01-17T02:24:22.423Z,39.30
2023-01-17T02:27:27.008Z,39.60
2023-01-17T02:30:34.960Z,39.00
2023-01-17T02:33:34.611Z,38.90
2023-01-17T02:36:32.805Z,38.90
2023-01-17T02:39:33.983Z,38.80
2023-01-17T02:42:32.791Z,38.70
2023-01-17T02:45:25.931Z,38.70
2023-01-17T02:48:25.457Z,38.50
2023-01-17T02:51:43.691Z,38.50
2023-01-17T02:54:51.429Z,38.50
2023-01-17T02:57:59.105Z,38.40
2023-01-17T03:01:03.071Z,38.40
2023-01-17T03:04:03.807Z,38.30
2023-01-17T03:07:01.887Z,38.70
2023-01-17T03:09:59.397Z,38.30
2023-01-17T03:12:58.671Z,38.30
2023-01-17T03:15:51.612Z,38.30
2023-01-17T03:18:44.948Z,38.60
2023-01-17T03:21:40.102Z,38.60
2023-01-17T03:24:33.777Z,38.50
2023-01-17T03:27:26.688Z,38.30
2023-01-17T03:30:21.855Z,38.30
2023-01-17T03:33:17.611Z,38.20
2023-01-17T03:36:11.943Z,38.20
2023-01-17T03:39:07.019Z,38.20
2023-01-17T03:42:00.367Z,38.10
2023-01-17T03:44:53.992Z,38.00
2023-01-17T03:47:47.708Z,37.90
2023-01-17T03:50:44.351Z,38.00
2023-01-17T03:53:37.678Z,37.60
2023-01-17T03:56:32.247Z,37.80
2023-01-17T03:59:25.720Z,37.60
2023-01-17T04:02:18.714Z,37.60
2023-01-17T04:05:11.477Z,37.70
2023-01-17T04:08:06.575Z,37.80
2023-01-17T04:10:59.542Z,37.90
2023-01-17T04:13:54.085Z,37.60
2023-01-17T04:16:47.299Z,37.50
2023-01-17T04:19:41.730Z,37.10
2023-01-17T04:22:34.518Z,37.20
2023-01-17T04:25:29.856Z,37.40
2023-01-17T04:28:22.675Z,37.10
2023-01-17T04:31:18.161Z,37.00
2023-01-17T04:34:11.748Z,37.00
2023-01-17T04:37:04.581Z,36.90
2023-01-17T04:39:57.405Z,36.70
2023-01-17T04:42:51.211Z,36.70
2023-01-17T04:45:44.979Z,36.90
2023-01-17T04:48:40.172Z,36.90
2023-01-17T04:51:33.701Z,36.60
2023-01-17T04:54:26.788Z,36.50
2023-01-17T04:57:20.372Z,36.40
2023-01-17T05:00:14.633Z,36.40
2023-01-17T05:03:07.797Z,36.40
2023-01-17T05:06:02.302Z,36.40
2023-01-17T05:08:55.552Z,36.40
2023-01-17T05:11:48.444Z,36.30
2023-01-17T05:14:41.511Z,36.20
2023-01-17T05:17:34.803Z,36.20
2023-01-17T05:20:27.711Z,36.20
2023-01-17T05:23:21.816Z,36.10
2023-01-17T05:26:15.215Z,36.20
2023-01-17T05:29:08.651Z,36.20
2023-01-17T05:32:01.342Z,36.20
2023-01-17T05:34:54.600Z,36.20
2023-01-17T05:37:49.157Z,36.20
2023-01-17T05:40:44.080Z,36.30
2023-01-17T05:43:37.720Z,36.40
2023-01-17T05:46:30.696Z,36.40
2023-01-17T05:49:23.447Z,36.30
2023-01-17T05:52:16.564Z,36.20
2023-01-17T05:55:10.737Z,36.10
2023-01-17T05:58:05.596Z,36.10
2023-01-17T06:00:58.868Z,36.00
2023-01-17T06:03:51.745Z,36.00
2023-01-17T06:06:44.426Z,36.00
2023-01-17T06:09:37.590Z,36.00
2023-01-17T06:12:30.305Z,36.10
2023-01-17T06:15:24.848Z,35.90
2023-01-17T06:18:18.910Z,36.00
2023-01-17T06:21:11.820Z,36.00
2023-01-17T06:24:04.521Z,36.00
2023-01-17T06:26:57.470Z,36.10
2023-01-17T06:29:50.647Z,36.00
2023-01-17T06:32:45.445Z,36.00
2023-01-17T06:35:40.826Z,35.90
2023-01-17T06:38:33.736Z,36.00
2023-01-17T06:41:26.842Z,36.00
2023-01-17T06:44:19.669Z,36.00
2023-01-17T06:47:12.487Z,36.00
2023-01-17T06:50:08.452Z,36.00
2023-01-17T06:53:03.280Z,36.00
2023-01-17T06:55:57.586Z,36.00
2023-01-17T06:58:51.158Z,36.00
2023-01-17T07:01:44.866Z,36.10
2023-01-17T07:04:37.667Z,36.00
2023-01-17T07:07:33.978Z,36.10
2023-01-17T07:10:26.576Z,36.10
2023-01-17T07:13:19.742Z,36.20
2023-01-17T07:16:13.149Z,36.30
2023-01-17T07:19:06.614Z,36.30
2023-01-17T07:21:59.668Z,36.30
2023-01-17T07:24:58.439Z,36.30
2023-01-17T07:27:54.899Z,36.30
2023-01-17T07:30:47.479Z,36.30
2023-01-17T07:33:40.775Z,36.30
2023-01-17T07:36:33.657Z,36.30
2023-01-17T07:39:27.819Z,36.30
2023-01-17T07:42:23.923Z,36.30
2023-01-17T07:45:18.744Z,36.20
2023-01-17T07:48:12.703Z,36.30
2023-01-17T07:51:05.995Z,36.30
2023-01-17T07:53:58.712Z,36.30
2023-01-17T07:56:51.680Z,36.30
2023-01-17T07:59:46.109Z,36.30
2023-01-17T08:02:40.132Z,36.30
2023-01-17T08:05:33.782Z,36.40
2023-01-17T08:08:26.761Z,36.40
2023-01-17T08:11:19.515Z,36.40
2023-01-17T08:14:12.542Z,36.40
2023-01-17T08:17:07.856Z,36.50
2023-01-17T08:20:00.510Z,36.50
2023-01-17T08:22:56.066Z,36.60
2023-01-17T08:25:49.919Z,36.60
2023-01-17T08:28:42.819Z,36.80
2023-01-17T08:31:36.649Z,37.60
2023-01-17T08:34:31.082Z,38.10
2023-01-17T08:37:25.070Z,38.50
2023-01-17T08:40:19.765Z,39.00
2023-01-17T08:43:12.638Z,39.30
2023-01-17T08:46:06.157Z,39.60
2023-01-17T08:49:02.554Z,39.90
2023-01-17T08:51:57.220Z,36.70
2023-01-17T08:54:53.297Z,36.80
2023-01-17T08:57:47.006Z,37.20
2023-01-17T09:00:40.061Z,38.00
2023-01-17T09:03:34.128Z,39.40
2023-01-17T09:06:28.156Z,39.70
2023-01-17T09:09:23.470Z,40.20
2023-01-17T09:12:16.775Z,40.60
2023-01-17T09:15:10.706Z,40.60
2023-01-17T09:18:03.779Z,40.60
2023-01-17T09:20:59.101Z,40.70
2023-01-17T09:23:53.165Z,40.80
2023-01-17T09:26:48.125Z,40.90
2023-01-17T09:29:41.908Z,41.80
2023-01-17T09:32:35.090Z,41.20
2023-01-17T09:35:27.731Z,41.40
2023-01-17T09:38:21.690Z,41.50
2023-01-17T09:41:23.000Z,41.50
2023-01-17T09:44:26.826Z,42.00
2023-01-17T09:47:27.428Z,41.80
2023-01-17T09:50:28.081Z,41.90
2023-01-17T09:53:21.619Z,41.70
2023-01-17T09:56:20.412Z,41.70
2023-01-17T09:59:33.061Z,41.90
2023-01-17T10:02:55.963Z,42.00
2023-01-17T10:06:03.076Z,42.10
2023-01-17T10:09:13.775Z,42.00
2023-01-17T10:12:18.752Z,42.00
2023-01-17T10:15:32.902Z,42.50
2023-01-17T10:18:47.814Z,43.50
2023-01-17T10:22:02.084Z,43.60
2023-01-17T10:25:34.686Z,43.60
2023-01-17T10:28:33.810Z,43.40
2023-01-17T10:31:31.056Z,43.30
2023-01-17T10:34:29.264Z,43.30
2023-01-17T10:37:28.803Z,43.00
2023-01-17T10:40:26.989Z,42.80
2023-01-17T10:43:25.300Z,42.60
2023-01-17T10:46:22.569Z,42.50
2023-01-17T10:49:19.776Z,42.40
2023-01-17T10:52:20.277Z,42.50
2023-01-17T10:55:29.024Z,42.50
2023-01-17T10:58:22.624Z,42.50
2023-01-17T11:01:20.607Z,42.60
2023-01-17T11:04:21.059Z,42.60
2023-01-17T11:07:16.962Z,42.50
2023-01-17T11:10:37.955Z,42.40
2023-01-17T11:13:34.249Z,42.30
2023-01-17T11:16:31.295Z,42.30
2023-01-17T11:19:30.370Z,41.90
2023-01-17T11:22:24.840Z,41.00
2023-01-17T11:25:22.284Z,40.80
2023-01-17T11:28:22.967Z,40.70
2023-01-17T11:31:27.713Z,41.40
2023-01-17T11:34:27.078Z,40.60
2023-01-17T11:37:22.914Z,40.50
2023-01-17T11:40:24.777Z,40.70
2023-01-17T11:43:25.532Z,40.60
2023-01-17T11:46:20.397Z,40.70
2023-01-17T11:49:24.292Z,40.60
2023-01-17T11:52:24.998Z,41.10
2023-01-17T11:55:23.207Z,41.10
2023-01-17T11:58:16.448Z,41.10
2023-01-17T12:01:25.439Z,41.10
2023-01-17T12:04:24.700Z,41.00
2023-01-17T12:07:36.316Z,41.20
2023-01-17T12:10:37.796Z,40.90
2023-01-17T12:14:00.502Z,41.00
2023-01-17T12:17:07.360Z,41.40
2023-01-17T12:20:05.080Z,41.40
2023-01-17T12:23:22.230Z,41.90
2023-01-17T12:26:29.841Z,41.90
2023-01-17T12:29:44.559Z,41.70
2023-01-17T12:32:59.191Z,42.10
2023-01-17T12:35:55.120Z,42.20
2023-01-17T12:38:49.997Z,42.20
2023-01-17T12:41:54.119Z,42.40
2023-01-17T12:44:55.180Z,42.30
2023-01-17T12:47:54.343Z,42.20
2023-01-17T12:50:53.680Z,42.10
2023-01-17T12:53:58.866Z,42.20
2023-01-17T12:56:55.246Z,42.30
2023-01-17T12:59:53.646Z,42.40
2023-01-17T13:02:53.376Z,42.50
2023-01-17T13:05:48.532Z,42.40
2023-01-17T13:08:46.414Z,42.40
2023-01-17T13:11:49.637Z,42.50
2023-01-17T13:14:42.810Z,43.20
2023-01-17T13:17:45.142Z,42.40
2023-01-17T13:20:58.115Z,42.40
2023-01-17T13:24:24.135Z,42.30
2023-01-17T13:27:39.878Z,42.40
2023-01-17T13:30:48.810Z,42.40
2023-01-17T13:34:03.579Z,42.40
2023-01-17T13:37:14.674Z,42.40
2023-01-17T13:40:32.729Z,42.40
2023-01-17T13:43:31.267Z,42.50
2023-01-17T13:46:24.190Z,42.50
2023-01-17T13:49:23.615Z,42.50
2023-01-17T13:52:35.627Z,42.50
2023-01-17T13:55:46.595Z,42.50
2023-01-17T13:58:58.263Z,42.50
2023-01-17T14:01:55.469Z,42.50
2023-01-17T14:05:15.076Z,42.60
2023-01-17T14:08:16.907Z,42.60
2023-01-17T14:11:13.117Z,42.70
2023-01-17T14:14:39.418Z,42.70
2023-01-17T14:17:56.989Z,42.80
2023-01-17T14:21:06.161Z,42.80
2023-01-17T14:24:06.875Z,42.80
2023-01-17T14:27:15.237Z,42.70
2023-01-17T14:30:19.540Z,42.80
2023-01-17T14:33:18.765Z,42.80
2023-01-17T14:36:23.282Z,42.90
2023-01-17T14:39:23.095Z,42.80
2023-01-17T14:42:19.265Z,43.00
2023-01-17T14:45:20.412Z,42.90
2023-01-17T14:48:19.235Z,43.00
2023-01-17T14:51:14.924Z,43.00
2023-01-17T14:54:23.576Z,43.00
2023-01-17T14:57:26.472Z,43.10
2023-01-17T15:00:21.941Z,43.10
2023-01-17T15:03:18.174Z,43.10
2023-01-17T15:06:13.548Z,43.20
2023-01-17T15:09:11.807Z,43.30
2023-01-17T15:12:09.390Z,43.30
2023-01-17T15:15:03.251Z,43.30
2023-01-17T15:18:10.417Z,43.40
2023-01-17T15:21:07.605Z,43.40
2023-01-17T15:24:03.830Z,43.40
2023-01-17T15:26:57.303Z,43.40
2023-01-17T15:29:50.385Z,43.50
2023-01-17T15:32:42.913Z,43.40
2023-01-17T15:35:35.916Z,43.40
2023-01-17T15:38:38.469Z,43.50
2023-01-17T15:41:34.860Z,43.50
2023-01-17T15:44:46.863Z,43.50
2023-01-17T15:47:40.986Z,43.60
2023-01-17T15:50:39.695Z,43.50
2023-01-17T15:53:36.680Z,43.50
2023-01-17T15:56:32.637Z,43.60
2023-01-17T15:59:35.502Z,43.50
2023-01-17T16:02:33.667Z,43.60
2023-01-17T16:05:34.629Z,43.60
2023-01-17T16:08:38.676Z,44.20
2023-01-17T16:11:32.430Z,43.60
2023-01-17T16:14:26.540Z,43.60
2023-01-17T16:17:20.271Z,43.60
2023-01-17T16:20:20.324Z,43.70
2023-01-17T16:23:13.320Z,43.70
2023-01-17T16:26:10.643Z,43.70
2023-01-17T16:29:04.260Z,43.70
2023-01-17T16:31:57.017Z,43.70
2023-01-17T16:34:50.199Z,43.70
2023-01-17T16:37:43.338Z,43.70
2023-01-17T16:40:41.523Z,43.70
2023-01-17T16:43:36.511Z,44.40
2023-01-17T16:46:31.034Z,43.70
2023-01-17T16:49:24.353Z,43.80
2023-01-17T16:52:17.323Z,43.70
2023-01-17T16:55:13.255Z,43.70
2023-01-17T16:58:06.119Z,43.70
2023-01-17T17:01:00.443Z,43.80
2023-01-17T17:03:54.015Z,43.80
2023-01-17T17:06:47.238Z,43.80
2023-01-17T17:09:40.181Z,43.70
2023-01-17T17:12:33.745Z,43.80
2023-01-17T17:15:27.679Z,43.80
2023-01-17T17:18:22.610Z,43.80
2023-01-17T17:21:16.187Z,43.80
2023-01-17T17:24:12.570Z,43.80
2023-01-17T17:27:05.775Z,43.80
2023-01-17T17:29:59.330Z,43.80
2023-01-17T17:32:52.068Z,43.80
2023-01-17T17:35:47.120Z,43.90
2023-01-17T17:38:50.475Z,44.00
2023-01-17T17:41:45.846Z,44.10
2023-01-17T17:44:39.046Z,44.00
2023-01-17T17:47:32.266Z,43.90
2023-01-17T17:50:25.533Z,43.90
2023-01-17T17:53:21.832Z,43.90
2023-01-17T17:56:15.316Z,43.90
2023-01-17T17:59:09.791Z,43.90
2023-01-17T18:02:03.151Z,43.90
2023-01-17T18:04:56.244Z,44.00
2023-01-17T18:07:50.897Z,43.90
2023-01-17T18:10:47.262Z,43.90
2023-01-17T18:13:40.238Z,44.00
2023-01-17T18:16:35.778Z,43.90
2023-01-17T18:19:29.251Z,44.00
2023-01-17T18:22:22.341Z,44.30
2023-01-17T18:25:15.306Z,44.20
2023-01-17T18:28:09.661Z,44.10
2023-01-17T18:31:07.804Z,44.10
2023-01-17T18:34:04.837Z,44.10
2023-01-17T18:36:58.782Z,44.10
2023-01-17T18:39:52.299Z,44.00
2023-01-17T18:42:45.156Z,44.00
2023-01-17T18:45:39.568Z,44.10
2023-01-17T18:48:33.648Z,44.50
2023-01-17T18:51:29.400Z,45.70
2023-01-17T18:54:22.538Z,45.80
2023-01-17T18:57:15.501Z,44.90
2023-01-17T19:00:09.761Z,44.60
2023-01-17T19:03:06.247Z,45.10
2023-01-17T19:06:01.925Z,44.40
2023-01-17T19:08:55.040Z,44.40
2023-01-17T19:11:48.359Z,44.30
2023-01-17T19:14:41.568Z,44.40
2023-01-17T19:17:35.499Z,44.30
2023-01-17T19:20:29.882Z,44.30
2023-01-17T19:23:23.607Z,44.30
2023-01-17T19:26:17.655Z,44.30
2023-01-17T19:29:12.298Z,44.80
2023-01-17T19:32:07.324Z,44.30
2023-01-17T19:35:00.157Z,44.30
2023-01-17T19:37:55.748Z,44.30
2023-01-17T19:40:49.158Z,44.30
2023-01-17T19:43:43.443Z,44.30
2023-01-17T19:46:37.850Z,44.30
2023-01-17T19:49:32.095Z,44.30
2023-01-17T19:52:26.293Z,44.30
2023-01-17T19:55:25.665Z,44.30
2023-01-17T19:58:19.448Z,44.30
2023-01-17T20:01:14.391Z,44.30
2023-01-17T20:04:07.348Z,44.30
2023-01-17T20:07:00.377Z,44.30
2023-01-17T20:09:53.237Z,44.30
2023-01-17T20:12:47.648Z,44.30
2023-01-17T20:15:41.466Z,44.30
2023-01-17T20:18:35.532Z,44.30
2023-01-17T20:21:30.017Z,44.90
2023-01-17T20:24:23.381Z,44.30
2023-01-17T20:27:17.498Z,44.30
2023-01-17T20:30:20.136Z,44.30
2023-01-17T20:33:14.911Z,44.30
2023-01-17T20:36:11.521Z,44.30
2023-01-17T20:39:09.161Z,44.40
2023-01-17T20:42:02.337Z,44.30
2023-01-17T20:44:55.440Z,44.40
2023-01-17T20:47:49.640Z,44.40
2023-01-17T20:50:42.430Z,44.40
2023-01-17T20:53:35.784Z,45.70
2023-01-17T20:56:34.331Z,45.30
2023-01-17T20:59:27.609Z,45.00
2023-01-17T21:02:20.501Z,44.60
2023-01-17T21:05:16.466Z,44.50
2023-01-17T21:08:09.284Z,44.50
2023-01-17T21:11:02.656Z,44.40
2023-01-17T21:13:57.249Z,44.40
2023-01-17T21:16:51.142Z,44.40
2023-01-17T21:19:44.617Z,44.40
2023-01-17T21:22:38.838Z,44.40
2023-01-17T21:25:32.542Z,44.40
2023-01-17T21:28:27.298Z,44.40
2023-01-17T21:31:23.840Z,44.40
2023-01-17T21:34:17.474Z,44.40
2023-01-17T21:37:10.336Z,44.40
2023-01-17T21:40:05.476Z,44.40
2023-01-17T21:42:58.189Z,44.40
2023-01-17T21:45:52.445Z,44.40
2023-01-17T21:48:45.451Z,44.40
2023-01-17T21:51:56.829Z,44.40
2023-01-17T21:55:07.888Z,44.40
2023-01-17T21:58:20.192Z,44.40
2023-01-17T22:01:18.832Z,44.50
2023-01-17T22:04:13.270Z,44.50
2023-01-17T22:07:06.576Z,44.40
2023-01-17T22:09:59.484Z,44.50
2023-01-17T22:12:53.151Z,44.50
2023-01-17T22:16:01.316Z,45.90
2023-01-17T22:18:54.535Z,47.00
2023-01-17T22:21:47.645Z,46.40
2023-01-17T22:24:41.311Z,46.20
2023-01-17T22:27:34.027Z,45.70
2023-01-17T22:30:27.342Z,45.40
2023-01-17T22:33:22.256Z,45.20
2023-01-17T22:36:16.241Z,45.10
2023-01-17T22:39:10.972Z,45.10
2023-01-17T22:42:04.634Z,45.00
2023-01-17T22:44:57.453Z,45.00
2023-01-17T22:47:50.247Z,45.00
2023-01-17T22:50:44.742Z,44.90
2023-01-17T22:53:42.144Z,44.90
2023-01-17T22:56:35.543Z,44.90
2023-01-17T22:59:28.648Z,44.90
2023-01-17T23:02:21.745Z,44.90
2023-01-17T23:05:15.835Z,44.90
2023-01-17T23:08:10.638Z,44.90
2023-01-17T23:11:20.874Z,44.90
2023-01-17T23:14:17.124Z,44.90
2023-01-17T23:17:27.821Z,44.90
2023-01-17T23:20:21.432Z,44.90
2023-01-17T23:23:15.849Z,44.90
2023-01-17T23:26:09.642Z,44.90
2023-01-17T23:29:01.545Z,44.90
2023-01-17T23:31:54.516Z,44.90
2023-01-17T23:34:48.085Z,44.90
2023-01-17T23:37:58.665Z,44.90
2023-01-17T23:41:07.009Z,44.90
2023-01-17T23:44:00.609Z,44.90
2023-01-17T23:46:53.455Z,44.90
2023-01-17T23:49:48.194Z,45.50
2023-01-17T23:52:41.568Z,44.90
2023-01-17T23:55:36.387Z,44.90
2023-01-17T23:58:30.851Z,44.90
